Time;durP1;ratioP1;P1;durP2;ratioP2;P2;SDS_P1;SDS_P2;PMS_P1;PMS_P2;Temp;Humidity;BMP_temperature;BMP_pressure;BME280_temperature;BME280_humidity;BME280_pressure;Samples;Min_cycle;Max_cycle;Signal;HPM_P1;HPM_P2
2024/02/22 00:01:25;;;;;;;8.07;5.55;;;;;;;8.25;100.00;69305.22;5075008;28;20399;-50
2024/02/22 00:03:56;;;;;;;8.23;5.53;;;;;;;8.26;100.00;69308.38;5074887;28;20052;-52
2024/02/22 00:06:24;;;;;;;6.97;4.80;;;;;;;8.28;100.00;69311.31;5074640;28;20053;-50
2024/02/22 00:08:52;;;;;;;6.75;4.85;;;;;;;8.31;100.00;69316.25;5074658;28;20052;-53
2024/02/22 00:11:25;;;;;;;6.63;4.97;;;;;;;8.32;100.00;69314.78;5070055;28;20145;-53
2024/02/22 00:13:54;;;;;;;7.18;4.93;;;;;;;8.35;100.00;69318.31;5072808;28;20047;-53
2024/02/22 00:16:22;;;;;;;7.47;5.25;;;;;;;8.33;100.00;69315.97;5072191;28;20604;-52
2024/02/22 00:18:51;;;;;;;7.68;5.57;;;;;;;8.33;100.00;69313.97;5071617;28;20052;-53
2024/02/22 00:21:19;;;;;;;8.05;5.63;;;;;;;8.37;100.00;69315.41;5069382;28;20139;-51
2024/02/22 00:23:47;;;;;;;8.27;5.10;;;;;;;8.37;100.00;69318.63;5070322;28;20416;-51
2024/02/22 00:26:16;;;;;;;7.80;5.43;;;;;;;8.38;100.00;69321.78;5069899;28;20071;-51
2024/02/22 00:28:45;;;;;;;7.60;5.53;;;;;;;8.41;100.00;69320.69;5071096;28;20048;-51
2024/02/22 00:31:14;;;;;;;9.35;5.85;;;;;;;8.43;100.00;69327.63;5071078;28;20075;-52
2024/02/22 00:33:44;;;;;;;8.50;5.95;;;;;;;8.44;100.00;69331.97;5069851;28;20037;-52
2024/02/22 00:36:12;;;;;;;9.55;5.82;;;;;;;8.46;100.00;69331.72;5070610;28;20416;-52
2024/02/22 00:38:40;;;;;;;9.80;6.30;;;;;;;8.46;100.00;69333.72;5071364;28;20059;-51
2024/02/22 00:41:09;;;;;;;8.65;6.25;;;;;;;8.45;100.00;69327.38;5069741;28;20444;-54
2024/02/22 00:43:38;;;;;;;9.13;6.38;;;;;;;8.48;100.00;69333.47;5073520;28;20080;-49
2024/02/22 00:46:07;;;;;;;8.80;6.32;;;;;;;8.48;100.00;69330.88;5074227;28;20519;-50
2024/02/22 00:48:35;;;;;;;9.05;6.85;;;;;;;8.49;100.00;69334.63;5073952;28;20048;-52
2024/02/22 00:51:04;;;;;;;9.60;7.43;;;;;;;8.51;100.00;69333.78;5073978;28;20123;-52
2024/02/22 00:53:32;;;;;;;9.27;7.03;;;;;;;8.50;100.00;69335.78;5070932;28;20091;-50
2024/02/22 00:56:00;;;;;;;9.35;7.15;;;;;;;8.53;100.00;69339.28;5068555;28;20055;-50
2024/02/22 00:58:28;;;;;;;9.18;7.07;;;;;;;8.55;100.00;69338.44;5069644;28;20048;-50
2024/02/22 01:00:56;;;;;;;9.35;6.90;;;;;;;8.57;100.00;69343.94;5071123;28;20044;-53
2024/02/22 01:03:28;;;;;;;9.07;6.97;;;;;;;8.58;100.00;69345.13;5070305;28;20048;-51
2024/02/22 01:05:56;;;;;;;9.63;7.23;;;;;;;8.59;100.00;69345.72;5071350;28;20119;-53
2024/02/22 01:08:24;;;;;;;9.95;7.63;;;;;;;8.59;100.00;69345.72;5070958;28;20458;-51
2024/02/22 01:10:53;;;;;;;9.55;7.20;;;;;;;8.58;100.00;69342.50;5069741;28;20036;-51
2024/02/22 01:13:22;;;;;;;10.45;7.38;;;;;;;8.61;100.00;69348.03;5069587;28;20127;-62
2024/02/22 01:15:50;;;;;;;8.95;6.80;;;;;;;8.61;100.00;69348.03;5070453;28;20118;-62
2024/02/22 01:18:18;;;;;;;9.82;6.97;;;;;;;8.63;100.00;69353.56;5070708;28;20508;-62
2024/02/22 01:20:48;;;;;;;10.57;7.38;;;;;;;8.62;100.00;69349.19;5070220;28;20098;-62
2024/02/22 01:23:16;;;;;;;12.00;7.88;;;;;;;8.65;100.00;69352.13;5070956;28;20094;-62
2024/02/22 01:25:44;;;;;;;10.00;7.70;;;;;;;8.64;100.00;69351.53;5072519;28;20044;-62
2024/02/22 01:28:13;;;;;;;10.02;7.38;;;;;;;8.67;100.00;69359.63;5069744;28;20132;-62
2024/02/22 01:30:41;;;;;;;9.77;7.22;;;;;;;8.65;100.00;69352.69;5070524;28;20051;-62
2024/02/22 01:33:13;;;;;;;9.40;7.00;;;;;;;8.68;100.00;69355.59;5072155;28;20043;-62
2024/02/22 01:35:41;;;;;;;9.43;6.65;;;;;;;8.73;100.00;69361.44;5068879;28;20140;-61
2024/02/22 01:38:11;;;;;;;9.95;6.90;;;;;;;8.77;100.00;69363.50;5069547;28;20044;-62
2024/02/22 01:40:39;;;;;;;9.00;6.63;;;;;;;8.74;100.00;69360.59;5069112;28;20049;-62
2024/02/22 01:43:07;;;;;;;8.88;6.45;;;;;;;8.74;100.00;69363.19;5070673;28;20045;-50
2024/02/22 01:45:36;;;;;;;8.60;6.47;;;;;;;8.75;100.00;69366.34;5073034;28;20496;-53
2024/02/22 01:48:05;;;;;;;10.10;6.88;;;;;;;8.73;100.00;69362.00;5070902;28;20036;-49
2024/02/22 01:50:34;;;;;;;8.95;6.43;;;;;;;8.74;100.00;69363.19;5069286;28;20062;-49
2024/02/22 01:53:03;;;;;;;8.70;6.53;;;;;;;8.74;100.00;69363.19;5069902;28;20040;-51
2024/02/22 01:55:34;;;;;;;8.70;6.78;;;;;;;8.74;100.00;69365.19;5071480;28;20141;-50
2024/02/22 01:58:02;;;;;;;9.15;6.25;;;;;;;8.76;100.00;69367.53;5068981;28;20565;-48
2024/02/22 02:00:32;;;;;;;8.52;6.35;;;;;;;8.80;100.00;69369.59;5068940;28;20496;-50
2024/02/22 02:03:00;;;;;;;9.00;6.03;;;;;;;8.79;100.00;69366.41;5071610;28;20055;-49
2024/02/22 02:05:28;;;;;;;9.07;6.68;;;;;;;8.79;100.00;69363.81;5071749;28;20063;-50
2024/02/22 02:07:56;;;;;;;8.70;6.38;;;;;;;8.80;100.00;69369.59;5069539;28;20057;-53
2024/02/22 02:10:25;;;;;;;9.57;7.30;;;;;;;8.82;100.00;69371.34;5068755;28;20391;-53
2024/02/22 02:13:02;;;;;;;10.75;6.90;;;;;;;8.81;100.00;69370.75;5070505;28;20447;-50
2024/02/22 02:15:30;;;;;;;9.75;7.10;;;;;;;8.83;100.00;69372.50;5072462;28;20052;-50
2024/02/22 02:17:58;;;;;;;9.60;7.15;;;;;;;8.85;100.00;69372.22;5069590;28;20541;-53
2024/02/22 02:20:28;;;;;;;9.52;6.78;;;;;;;8.93;100.00;69381.53;5068987;28;20071;-53
2024/02/22 02:23:11;;;;;;;10.18;7.07;;;;;;;8.92;100.00;69383.56;5069795;28;20392;-52
2024/02/22 02:25:41;;;;;;;9.50;6.60;;;;;;;8.89;100.00;69377.47;5068773;28;20098;-52
2024/02/22 02:28:09;;;;;;;10.35;6.95;;;;;;;8.91;100.00;69385.00;5068640;28;20048;-52
2024/02/22 02:30:37;;;;;;;10.18;7.32;;;;;;;8.98;100.00;69394.63;5069432;28;20059;-51
2024/02/22 02:33:05;;;;;;;9.43;6.85;;;;;;;8.94;100.00;69385.31;5069999;28;20044;-51
2024/02/22 02:35:37;;;;;;;10.45;7.55;;;;;;;8.99;100.00;69387.97;5072230;28;20045;-53
2024/02/22 02:38:10;;;;;;;10.00;7.07;;;;;;;8.98;100.00;69392.00;5072502;28;20083;-53
2024/02/22 02:40:38;;;;;;;;;;;;;;;8.99;100.00;69393.19;5072908;28;20049;-53
2024/02/22 02:43:08;;;;;;;10.55;7.45;;;;;;;9.01;100.00;69390.88;5072006;28;20362;-53
2024/02/22 02:45:36;;;;;;;12.57;7.97;;;;;;;9.01;100.00;69396.06;5068824;28;20044;-51
2024/02/22 02:48:05;;;;;;;14.57;7.95;;;;;;;9.00;100.00;69397.53;5070808;28;20055;-61
2024/02/22 02:50:36;;;;;;;12.80;8.23;;;;;;;9.03;100.00;69398.41;5072295;28;20105;-62
2024/02/22 02:53:04;;;;;;;11.38;7.93;;;;;;;9.04;100.00;69396.38;5072286;28;20045;-62
2024/02/22 02:55:32;;;;;;;12.25;8.77;;;;;;;9.06;100.00;69398.72;5071272;28;20164;-62
2024/02/22 02:58:02;;;;;;;13.52;8.25;;;;;;;9.06;100.00;69398.72;5066844;28;20446;-63
2024/02/22 03:00:32;;;;;;;13.75;8.73;;;;;;;9.09;100.00;69402.22;5069146;28;20048;-63
2024/02/22 03:03:00;;;;;;;17.33;9.32;;;;;;;9.08;100.00;69401.66;5069723;28;20084;-62
2024/02/22 03:05:28;;;;;;;13.77;9.70;;;;;;;9.08;100.00;69401.06;5067023;28;20057;-62
2024/02/22 03:07:57;;;;;;;14.98;9.77;;;;;;;9.12;100.00;69405.72;5068216;28;20447;-62
2024/02/22 03:10:25;;;;;;;13.23;9.35;;;;;;;9.17;100.00;69413.56;5068223;28;20040;-62
2024/02/22 03:12:54;;;;;;;17.25;10.48;;;;;;;9.14;100.00;69405.47;5069558;28;20047;-63
2024/02/22 03:15:22;;;;;;;16.15;10.25;;;;;;;9.14;100.00;69408.63;5069721;28;20052;-62
2024/02/22 03:17:51;;;;;;;13.95;9.20;;;;;;;9.15;100.00;69409.22;5069160;28;20060;-62
2024/02/22 03:20:20;;;;;;;15.32;10.07;;;;;;;9.18;100.00;69412.16;5068514;28;20458;-63
2024/02/22 03:22:48;;;;;;;14.57;10.23;;;;;;;9.18;100.00;69412.72;5072025;28;20123;-63
2024/02/22 03:25:16;;;;;;;15.95;10.50;;;;;;;9.20;100.00;69415.03;5071479;28;20127;-62
2024/02/22 03:27:49;;;;;;;16.15;10.82;;;;;;;9.22;100.00;69420.00;5072397;28;20412;-63
2024/02/22 03:30:17;;;;;;;15.68;11.25;;;;;;;9.21;100.00;69416.22;5070868;28;20076;-63
2024/02/22 03:32:45;;;;;;;16.70;10.98;;;;;;;9.28;100.00;69421.78;5072458;28;20450;-62
2024/02/22 03:35:15;;;;;;;17.90;12.20;;;;;;;9.25;100.00;69417.69;5071672;28;20072;-62
2024/02/22 03:37:43;;;;;;;16.98;11.05;;;;;;;9.22;100.00;69419.41;5072524;28;20059;-63
2024/02/22 03:40:12;;;;;;;19.08;11.18;;;;;;;9.26;100.00;69421.47;5071797;28;20170;-62
2024/02/22 03:42:40;;;;;;;17.42;11.75;;;;;;;9.28;100.00;69424.38;5071558;28;20057;-62
2024/02/22 03:45:09;;;;;;;18.70;12.50;;;;;;;9.28;100.00;69424.38;5071775;28;20392;-62
2024/02/22 03:47:38;;;;;;;17.13;11.68;;;;;;;9.27;100.00;69420.00;5072179;28;20044;-63
2024/02/22 03:50:07;;;;;;;18.00;11.48;;;;;;;9.27;100.00;69422.63;5072161;28;20129;-63
2024/02/22 03:52:36;;;;;;;18.35;11.68;;;;;;;9.28;100.00;69427.00;5072310;28;20123;-62
2024/02/22 03:55:08;;;;;;;18.45;12.40;;;;;;;9.32;100.00;69428.47;5071796;28;20037;-62
2024/02/22 03:57:36;;;;;;;21.35;12.75;;;;;;;9.28;100.00;69427.00;5074235;28;20052;-62
2024/02/22 04:00:07;;;;;;;18.48;12.05;;;;;;;9.26;100.00;69424.66;5071683;28;20067;-62
2024/02/22 04:02:35;;;;;;;21.15;12.73;;;;;;;9.25;100.00;69418.28;5072017;28;20059;-62
2024/02/22 04:05:05;;;;;;;19.60;11.45;;;;;;;9.26;100.00;69424.66;5070804;28;20118;-60
2024/02/22 04:07:35;;;;;;;19.30;11.63;;;;;;;9.27;100.00;69423.22;5070437;28;20090;-63
2024/02/22 04:10:04;;;;;;;22.52;12.05;;;;;;;9.29;100.00;69427.56;5070915;28;20127;-62
2024/02/22 04:12:32;;;;;;;18.88;12.02;;;;;;;9.28;100.00;69421.78;5070968;28;20044;-62
2024/02/22 04:15:00;;;;;;;21.92;12.02;;;;;;;9.30;100.00;69426.72;5071260;28;20495;-62
2024/02/22 04:17:28;;;;;;;22.90;12.55;;;;;;;9.30;100.00;69426.13;5071854;28;20132;-62
2024/02/22 04:19:56;;;;;;;20.05;12.30;;;;;;;9.32;100.00;69427.88;5071358;28;20090;-63
2024/02/22 04:22:25;;;;;;;17.92;11.35;;;;;;;9.30;100.00;69431.91;5069954;28;20049;-62
2024/02/22 04:24:54;;;;;;;18.45;11.15;;;;;;;9.27;100.00;69423.22;5070957;28;20507;-62
2024/02/22 04:27:23;;;;;;;19.20;11.02;;;;;;;9.29;100.00;69425.53;5070388;28;20098;-62
2024/02/22 04:29:51;;;;;;;19.85;10.98;;;;;;;9.29;100.00;69424.97;5071076;28;20064;-62
2024/02/22 04:32:19;;;;;;;19.75;11.13;;;;;;;9.25;100.00;69418.28;5070670;28;20102;-62
2024/02/22 04:34:47;;;;;;;17.23;11.20;;;;;;;9.26;100.00;69421.47;5070201;28;20139;-63
2024/02/22 04:37:17;;;;;;;21.38;10.77;;;;;;;9.24;100.00;69419.72;5070390;28;20047;-62
2024/02/22 04:39:45;;;;;;;17.50;10.90;;;;;;;9.23;100.00;69417.97;5071031;28;20041;-63
2024/02/22 04:42:16;;;;;;;17.77;11.43;;;;;;;9.24;100.00;69419.13;5070335;28;20086;-63
2024/02/22 04:44:45;;;;;;;19.83;11.20;;;;;;;9.26;100.00;69424.06;5070793;28;20116;-63
2024/02/22 04:47:13;;;;;;;17.85;10.30;;;;;;;9.24;100.00;69422.34;5073246;28;20045;-62
2024/02/22 04:49:42;;;;;;;21.02;12.20;;;;;;;9.24;100.00;69419.13;5071082;28;20136;-63
2024/02/22 04:52:13;;;;;;;20.00;11.38;;;;;;;9.22;100.00;69414.78;5070483;28;20098;-63
2024/02/22 04:54:41;;;;;;;22.17;12.13;;;;;;;9.21;100.00;69413.59;5070523;28;20416;-63
2024/02/22 04:57:12;;;;;;;19.30;11.10;;;;;;;9.21;100.00;69410.44;5070289;28;20072;-62
2024/02/22 04:59:42;;;;;;;19.08;10.63;;;;;;;9.18;100.00;69410.13;5070966;28;20127;-62
2024/02/22 05:02:10;;;;;;;17.13;10.38;;;;;;;9.18;100.00;69412.72;5069829;28;20098;-62
2024/02/22 05:04:38;;;;;;;21.83;11.27;;;;;;;9.21;100.00;69416.22;5070464;28;20365;-63
2024/02/22 05:07:07;;;;;;;23.13;11.32;;;;;;;9.18;100.00;69412.72;5070471;28;20159;-62
2024/02/22 05:09:35;;;;;;;20.48;10.35;;;;;;;9.16;100.00;69407.19;5069815;28;20080;-63
2024/02/22 05:12:03;;;;;;;21.10;10.13;;;;;;;9.17;100.00;69414.16;5070250;28;20048;-63
2024/02/22 05:14:32;;;;;;;20.17;10.02;;;;;;;9.19;100.00;69415.91;5072581;28;20049;-62
2024/02/22 05:17:01;;;;;;;19.20;10.38;;;;;;;9.14;100.00;69411.22;5070628;28;20074;-62
2024/02/22 05:19:29;;;;;;;22.20;10.70;;;;;;;9.11;100.00;69402.53;5068797;28;20106;-62
2024/02/22 05:21:57;;;;;;;21.75;10.35;;;;;;;9.09;100.00;69399.63;5071560;28;20044;-62
2024/02/22 05:24:27;;;;;;;24.13;10.65;;;;;;;9.09;100.00;69399.63;5072224;28;20056;-63
2024/02/22 05:26:56;;;;;;;24.15;10.68;;;;;;;9.07;100.00;69399.91;5070591;28;20098;-63
2024/02/22 05:29:24;;;;;;;20.85;10.60;;;;;;;9.03;100.00;69395.81;5069321;28;20075;-62
2024/02/22 05:31:55;;;;;;;21.00;10.63;;;;;;;9.04;100.00;69397.00;5070556;28;20120;-62
2024/02/22 05:34:25;;;;;;;27.58;10.85;;;;;;;9.05;100.00;69400.16;5067867;28;20063;-62
2024/02/22 05:36:53;;;;;;;25.63;11.30;;;;;;;9.03;100.00;69395.25;5070052;28;20043;-62
2024/02/22 05:39:22;;;;;;;24.95;10.40;;;;;;;8.96;100.00;69388.25;5069673;28;20052;-62
2024/02/22 05:41:50;;;;;;;21.50;9.80;;;;;;;8.90;100.00;69385.88;5068903;28;20056;-62
2024/02/22 05:44:20;;;;;;;25.45;9.18;;;;;;;8.89;100.00;69380.09;5069385;28;20376;-62
2024/02/22 05:46:48;;;;;;;20.10;8.80;;;;;;;8.87;100.00;69379.78;5071390;28;20229;-62
2024/02/22 05:49:19;;;;;;;18.70;9.27;;;;;;;8.86;100.00;69373.41;5069364;28;20096;-62
2024/02/22 05:51:49;;;;;;;20.55;9.15;;;;;;;8.83;100.00;69372.50;5070093;28;20044;-62
2024/02/22 05:54:17;;;;;;;23.25;9.48;;;;;;;8.83;100.00;69370.47;5069218;28;20044;-50
2024/02/22 05:56:45;;;;;;;21.70;9.00;;;;;;;8.80;100.00;69372.78;5068541;28;20513;-52
2024/02/22 05:59:14;;;;;;;24.35;9.77;;;;;;;8.83;100.00;69369.91;5069845;28;20047;-53
2024/02/22 06:01:42;;;;;;;20.75;9.90;;;;;;;8.80;100.00;69367.56;5072869;28;20049;-52
2024/02/22 06:04:13;;;;;;;28.88;11.18;;;;;;;8.78;100.00;69369.84;5070234;28;20041;-50
2024/02/22 06:06:41;;;;;;;22.90;10.82;;;;;;;8.80;100.00;69369.59;5069622;28;20053;-53
2024/02/22 06:09:10;;;;;;;27.90;11.73;;;;;;;8.81;100.00;69370.75;5068494;28;20053;-63
2024/02/22 06:11:39;;;;;;;25.50;11.55;;;;;;;8.81;100.00;69370.75;5067491;28;20052;-62
2024/02/22 06:14:08;;;;;;;26.05;11.90;;;;;;;8.80;100.00;69367.00;5069295;28;20071;-63
2024/02/22 06:16:37;;;;;;;27.15;12.63;;;;;;;8.79;100.00;69368.41;5068566;28;20086;-63
2024/02/22 06:19:05;;;;;;;26.20;12.88;;;;;;;8.79;100.00;69368.41;5067941;28;20063;-62
2024/02/22 06:21:33;;;;;;;29.52;12.48;;;;;;;8.79;100.00;69368.41;5069714;28;20052;-62
2024/02/22 06:24:02;;;;;;;30.33;12.20;;;;;;;8.75;100.00;69363.75;5069612;28;20440;-63
2024/02/22 06:26:34;;;;;;;28.95;12.00;;;;;;;8.74;100.00;69362.59;5066983;28;20037;-62
2024/02/22 06:29:03;;;;;;;28.73;13.03;;;;;;;8.78;100.00;69367.25;5070941;28;20059;-61
2024/02/22 06:31:31;;;;;;;21.23;12.23;;;;;;;8.78;100.00;69367.25;5072723;28;20449;-61
2024/02/22 06:34:00;;;;;;;25.50;12.95;;;;;;;8.78;100.00;69364.66;5069456;28;20454;-61
2024/02/22 06:36:30;;;;;;;24.08;12.40;;;;;;;8.75;100.00;69363.75;5069523;28;20056;-61
2024/02/22 06:38:58;;;;;;;26.23;12.52;;;;;;;8.73;100.00;69356.22;5068627;28;20064;-61
2024/02/22 06:41:26;;;;;;;23.17;12.23;;;;;;;8.75;100.00;69366.34;5069486;28;20416;-50
2024/02/22 06:43:56;;;;;;;24.00;11.73;;;;;;;8.75;100.00;69358.56;5068667;28;20060;-50
2024/02/22 06:46:25;;;;;;;24.20;11.80;;;;;;;8.72;100.00;69362.88;5068521;28;20045;-50
2024/02/22 06:48:55;;;;;;;24.27;11.63;;;;;;;8.75;100.00;69366.97;5067649;28;20045;-52
2024/02/22 06:51:24;;;;;;;24.83;10.98;;;;;;;8.71;100.00;69361.69;5068730;28;20052;-50
2024/02/22 06:53:52;;;;;;;23.00;11.20;;;;;;;8.68;100.00;69353.00;5069393;28;20522;-48
2024/02/22 06:56:20;;;;;;;22.95;11.02;;;;;;;8.69;100.00;69356.78;5073185;28;20068;-50
2024/02/22 06:58:49;;;;;;;24.98;10.80;;;;;;;8.72;100.00;69363.44;5076155;28;20083;-49
2024/02/22 07:01:18;;;;;;;22.88;10.90;;;;;;;8.72;100.00;69360.84;5072414;28;20048;-48
2024/02/22 07:03:47;;;;;;;22.77;10.32;;;;;;;8.73;100.00;69359.41;5072925;28;20132;-50
2024/02/22 07:06:18;;;;;;;17.70;9.38;;;;;;;8.72;100.00;69366.03;5071332;28;20052;-50
2024/02/22 07:08:46;;;;;;;23.40;9.50;;;;;;;8.73;100.00;69361.44;5074335;28;20460;-49
2024/02/22 07:11:14;;;;;;;21.77;9.00;;;;;;;8.73;100.00;69358.84;5075982;28;20075;-51
2024/02/22 07:13:43;;;;;;;20.33;9.50;;;;;;;8.71;100.00;69362.28;5075973;28;20106;-47
2024/02/22 07:16:14;;;;;;;20.30;9.43;;;;;;;8.68;100.00;69356.19;5071265;28;20098;-49
2024/02/22 07:18:43;;;;;;;21.95;9.07;;;;;;;8.71;100.00;69361.69;5072914;28;20068;-60
2024/02/22 07:21:14;;;;;;;17.97;8.93;;;;;;;8.66;100.00;69350.66;5072247;28;20059;-62
2024/02/22 07:23:43;;;;;;;18.17;9.07;;;;;;;8.62;100.00;69349.78;5073188;28;20734;-50
2024/02/22 07:26:11;;;;;;;20.15;9.18;;;;;;;8.65;100.00;69352.13;5071050;28;20063;-52
2024/02/22 07:28:40;;;;;;;21.52;9.82;;;;;;;8.67;100.00;69349.84;5075624;28;20041;-52
2024/02/22 07:31:08;;;;;;;20.95;9.32;;;;;;;8.71;100.00;69359.69;5075509;28;20039;-52
2024/02/22 07:33:36;;;;;;;19.15;9.88;;;;;;;8.76;100.00;69359.72;5075946;28;20507;-50
2024/02/22 07:36:10;;;;;;;20.65;9.40;;;;;;;8.75;100.00;69363.75;5075165;28;20055;-49
2024/02/22 07:38:39;;;;;;;19.15;9.98;;;;;;;8.74;100.00;69363.19;5075189;28;20048;-52
2024/02/22 07:41:08;;;;;;;17.35;10.32;;;;;;;8.74;100.00;69363.19;5070935;28;20448;-52
2024/02/22 07:43:36;;;;;;;17.88;10.43;;;;;;;8.74;100.00;69363.19;5073164;28;20175;-49
2024/02/22 07:46:05;;;;;;;22.40;11.77;;;;;;;8.77;100.00;69366.09;5073541;28;20040;-49
2024/02/22 07:48:33;;;;;;;23.05;12.38;;;;;;;8.77;100.00;69366.09;5070794;28;20060;-60
2024/02/22 07:51:02;;;;;;;19.45;12.50;;;;;;;8.79;100.00;69365.81;5073174;28;20052;-48
2024/02/22 07:53:34;;;;;;;21.85;12.50;;;;;;;8.78;100.00;69365.25;5075251;28;20045;-49
2024/02/22 07:56:04;;;;;;;21.63;12.38;;;;;;;8.82;100.00;69373.94;5073091;28;20047;-50
2024/02/22 07:58:45;;;;;;;23.33;12.75;;;;;;;8.82;100.00;69371.94;5071803;28;20426;-50
2024/02/22 08:01:14;;;;;;;22.98;12.40;;;;;;;8.85;100.00;69375.44;5071801;28;20674;-50
2024/02/22 08:03:43;;;;;;;21.02;12.65;;;;;;;8.87;100.00;69379.78;5071825;28;20728;-51
2024/02/22 08:06:12;;;;;;;18.23;12.57;;;;;;;8.88;100.00;69378.91;5071200;28;20067;-51
2024/02/22 08:08:42;;;;;;;16.92;11.20;;;;;;;8.91;100.00;69381.84;5071757;28;20480;-51
2024/02/22 08:11:11;;;;;;;17.95;11.73;;;;;;;8.93;100.00;69384.16;5070090;28;20048;-50
2024/02/22 08:13:39;;;;;;;17.23;11.40;;;;;;;8.93;100.00;69384.75;5071291;28;20048;-51
2024/02/22 08:16:09;;;;;;;15.80;11.43;;;;;;;8.95;100.00;69386.50;5071251;28;20511;-48
2024/02/22 08:18:38;;;;;;;18.05;10.57;;;;;;;9.00;100.00;69394.34;5069716;28;20052;-48
2024/02/22 08:21:08;;;;;;;15.75;10.35;;;;;;;9.03;100.00;69392.63;5072084;28;20117;-49
2024/02/22 08:23:36;;;;;;;15.25;10.02;;;;;;;9.06;100.00;69398.72;5074728;28;20048;-49
2024/02/22 08:26:06;;;;;;;14.82;9.02;;;;;;;9.05;100.00;69395.56;5074771;28;20395;-48
2024/02/22 08:28:34;;;;;;;15.57;9.25;;;;;;;9.06;100.00;69396.72;5074656;28;20047;-61
2024/02/22 08:31:02;;;;;;;16.27;9.10;;;;;;;9.10;100.00;69403.41;5074213;28;20074;-63
2024/02/22 08:33:30;;;;;;;16.10;8.57;;;;;;;9.10;100.00;69403.41;5071157;28;20048;-61
2024/02/22 08:35:58;;;;;;;11.15;7.53;;;;;;;9.13;100.00;69409.50;5070186;28;20064;-61
2024/02/22 08:38:27;;;;;;;12.75;7.60;;;;;;;9.14;100.00;69408.06;5071408;28;20046;-50
2024/02/22 08:40:55;;;;;;;12.35;6.50;;;;;;;9.17;100.00;69413.56;5069096;28;20124;-50
2024/02/22 08:43:25;;;;;;;12.10;6.75;;;;;;;9.20;100.00;69412.44;5072477;28;20496;-52
2024/02/22 08:45:54;;;;;;;12.73;7.65;;;;;;;9.24;100.00;69421.72;5070861;28;20508;-50
2024/02/22 08:48:23;;;;;;;13.52;8.15;;;;;;;9.32;100.00;69431.06;5071934;28;20044;-53
2024/02/22 08:50:57;;;;;;;14.38;7.97;;;;;;;9.36;100.00;69425.31;5072554;28;20064;-52
2024/02/22 08:53:25;;;;;;;13.18;8.57;;;;;;;9.38;100.00;69435.47;5074249;28;20518;-53
2024/02/22 08:55:53;;;;;;;12.80;8.68;;;;;;;9.40;100.00;69437.78;5074036;28;20075;-52
2024/02/22 08:58:22;;;;;;;11.50;8.00;;;;;;;9.40;100.00;69437.22;5071615;28;20072;-50
2024/02/22 09:00:51;;;;;;;11.65;7.93;;;;;;;9.46;100.00;69446.78;5070638;28;20518;-54
2024/02/22 09:03:19;;;;;;;10.75;7.65;;;;;;;9.46;100.00;69439.56;5070784;28;20566;-52
2024/02/22 09:05:47;;;;;;;10.25;7.32;;;;;;;9.41;100.00;69438.38;5072532;28;20125;-51
2024/02/22 09:08:16;;;;;;;11.25;7.30;;;;;;;9.40;100.00;69437.22;5070347;28;20048;-50
2024/02/22 09:10:45;;;;;;;12.77;7.97;;;;;;;9.42;100.00;69436.94;5070717;28;20048;-49
2024/02/22 09:13:13;;;;;;;9.98;7.63;;;;;;;9.46;100.00;69444.19;5073918;28;20044;-51
2024/02/22 09:25:21;;;;;;;12.77;7.63;;;;;;;9.50;100.00;69451.47;5070618;28;20065;-48
2024/02/22 09:27:50;;;;;;;10.70;7.93;;;;;;;9.52;100.00;69451.19;5070560;28;20583;-48
2024/02/22 09:30:18;;;;;;;11.05;7.85;;;;;;;9.57;100.00;69454.44;5069850;28;20479;-50
2024/02/22 09:32:46;;;;;;;11.50;8.45;;;;;;;9.63;100.00;69463.44;5070057;28;20044;-52
2024/02/22 09:35:15;;;;;;;11.02;8.15;;;;;;;9.71;100.00;69469.59;5069784;28;20597;-51
2024/02/22 09:37:43;;;;;;;11.23;8.13;;;;;;;9.84;100.00;69481.56;5069826;28;20051;-52
2024/02/22 09:40:13;;;;;;;11.50;7.72;;;;;;;9.97;100.00;69501.94;5069246;28;20050;-50
2024/02/22 09:42:44;;;;;;;10.40;7.75;;;;;;;9.96;100.00;69498.72;5068584;28;20529;-50
2024/02/22 09:45:15;;;;;;;9.60;7.35;;;;;;;10.09;100.00;69515.34;5068034;28;20057;-49
2024/02/22 09:47:46;;;;;;;8.80;6.30;;;;;;;10.13;100.00;69520.03;5069782;28;20063;-51
2024/02/22 09:50:14;;;;;;;10.48;6.40;;;;;;;10.20;100.00;69528.19;5069395;28;20055;-50
2024/02/22 09:52:43;;;;;;;8.20;6.30;;;;;;;10.15;100.00;69520.31;5069489;28;20048;-50
2024/02/22 09:55:12;;;;;;;7.75;5.80;;;;;;;10.19;100.00;69527.00;5068773;28;20045;-50
2024/02/22 09:57:42;;;;;;;7.05;4.97;;;;;;;10.20;100.00;69525.59;5068782;28;20056;-54
2024/02/22 10:00:14;;;;;;;6.88;4.85;;;;;;;10.19;100.00;69527.00;5069896;28;20552;-49
2024/02/22 10:02:46;;;;;;;6.32;4.28;;;;;;;10.20;100.00;69525.59;5070128;28;20436;-48
2024/02/22 10:05:19;;;;;;;6.05;4.03;;;;;;;10.27;100.00;69535.78;5072128;28;20446;-51
2024/02/22 10:07:48;;;;;;;6.28;3.70;;;;;;;10.29;100.00;69538.69;5072540;28;20377;-48
2024/02/22 10:10:25;;;;;;;6.10;3.70;;;;;;;10.31;100.00;69543.63;5072509;28;20040;-52
2024/02/22 10:12:55;;;;;;;4.88;3.42;;;;;;;10.27;100.00;69535.78;5071579;28;20052;-51
2024/02/22 10:15:27;;;;;;;5.07;2.92;;;;;;;10.34;100.00;69540.75;5072989;28;20048;-51
2024/02/22 10:17:56;;;;;;;5.22;2.78;;;;;;;10.30;100.00;69539.84;5070005;28;20040;-61
2024/02/22 10:20:30;;;;;;;4.82;3.05;;;;;;;10.36;100.00;69545.72;5069244;28;20365;-61
2024/02/22 10:23:09;;;;;;;4.18;2.90;;;;;;;10.25;100.00;69531.41;5072975;28;20050;-62
2024/02/22 10:25:39;;;;;;;5.63;2.70;;;;;;;10.26;100.00;69529.38;5071573;28;20058;-61
2024/02/22 10:28:14;;;;;;;3.97;2.75;;;;;;;10.18;100.00;69525.84;5072815;28;20369;-62
2024/02/22 10:30:43;;;;;;;4.28;3.00;;;;;;;10.22;100.00;69527.31;5072272;28;20052;-62
2024/02/22 10:33:12;;;;;;;4.35;3.28;;;;;;;10.26;100.00;69532.56;5073544;28;20049;-61
2024/02/22 10:35:43;;;;;;;5.85;3.28;;;;;;;10.31;100.00;69535.81;5073134;28;20040;-61
2024/02/22 10:38:12;;;;;;;6.07;3.60;;;;;;;10.32;100.00;69538.97;5073778;28;20048;-62
2024/02/22 10:40:45;;;;;;;4.93;3.35;;;;;;;10.32;100.00;69542.19;5072552;28;20103;-61
2024/02/22 10:43:15;;;;;;;4.18;3.13;;;;;;;10.26;100.00;69535.19;5071678;28;20053;-62
2024/02/22 10:45:44;;;;;;;5.10;3.22;;;;;;;10.26;100.00;69532.00;5073543;28;20135;-62
2024/02/22 10:48:12;;;;;;;4.85;3.40;;;;;;;10.23;100.00;69525.88;5074356;28;20055;-61
2024/02/22 10:50:44;;;;;;;5.50;3.58;;;;;;;10.20;100.00;69528.19;5076308;28;20040;-61
2024/02/22 11:16:16;;;;;;;4.85;3.13;;;;;;;10.30;100.00;69537.22;5049807;28;20495;-50
2024/02/22 11:18:46;;;;;;;6.85;2.83;;;;;;;10.34;100.00;69541.31;5051180;28;20143;-52
2024/02/22 11:21:15;;;;;;;4.97;2.97;;;;;;;10.38;100.00;69546.00;5051695;28;20139;-50
2024/02/22 11:23:44;;;;;;;3.70;2.70;;;;;;;10.42;100.00;69553.28;5051865;28;20056;-52
2024/02/22 11:26:12;;;;;;;3.97;2.80;;;;;;;10.45;100.00;69556.22;5051439;28;20566;-52
2024/02/22 11:28:41;;;;;;;3.53;2.40;;;;;;;10.49;100.00;69558.28;5054149;28;20033;-51
2024/02/22 11:31:10;;;;;;;4.18;2.08;;;;;;;10.51;100.00;69560.03;5055558;28;20400;-49
2024/02/22 11:33:43;;;;;;;;;;;;;;;10.53;100.00;69565.53;5056616;28;20396;-50
2024/02/22 11:36:16;;;;;;;3.05;1.92;;;;;;;10.52;100.00;69564.38;5053379;28;19921;-49
2024/02/22 11:38:46;;;;;;;2.85;2.13;;;;;;;10.53;100.00;69568.16;5052288;28;20067;-49
2024/02/22 11:41:16;;;;;;;4.13;2.40;;;;;;;10.65;100.00;69579.56;5053480;28;20052;-49
2024/02/22 11:43:48;;;;;;;2.78;2.20;;;;;;;10.64;100.00;69580.41;5051299;28;20115;-49
2024/02/22 11:46:17;;;;;;;3.95;2.50;;;;;;;10.67;100.00;69578.13;5052139;28;20516;-52
2024/02/22 11:48:46;;;;;;;4.70;2.70;;;;;;;10.68;100.00;69579.88;5055472;28;20500;-49
2024/02/22 11:51:15;;;;;;;4.97;2.72;;;;;;;10.71;100.00;69583.34;5054264;28;20057;-48
2024/02/22 11:53:52;;;;;;;4.22;2.88;;;;;;;10.68;100.00;69576.69;5055415;28;20041;-48
2024/02/22 11:56:21;;;;;;;4.68;2.72;;;;;;;10.71;100.00;69582.78;5055366;28;20202;-48
2024/02/22 11:58:49;;;;;;;4.45;2.60;;;;;;;10.72;100.00;69586.56;5051677;28;20049;-61
2024/02/22 12:01:18;;;;;;;2.92;2.47;;;;;;;10.74;100.00;69591.50;5052876;28;20083;-62
2024/02/22 12:03:51;;;;;;;9.05;2.95;;;;;;;10.73;100.00;69587.72;5053429;28;20041;-62
2024/02/22 12:06:20;;;;;;;5.68;2.55;;;;;;;10.75;100.00;69582.81;5054688;28;20508;-63